This is the latest recevied weather packets stored in our database for station/object VA7IS. If no packets are shown the sender has not sent any weather packets the latest 10 day(s).
| Time | Temp. | Humidity | Pressure | Rain* | Wind** | Luminosity | Snow |
|---|---|---|---|---|---|---|---|
| 1777761605 | 23.33° C | 49% | 1013.7 hPa | 0 mm | - | - | - |
| 1777761005 | 22.78° C | 50% | 1013.7 hPa | 0 mm | - | - | - |
| 1777754705 | 22.22° C | 49% | 1014.9 hPa | 0 mm | - | - | - |
| 1777752304 | 22.78° C | 45% | 1015.3 hPa | 0 mm | - | - | - |
| 1777750504 | 21.67° C | 48% | 1015.7 hPa | 0 mm | - | - | - |
| 1777749904 | 22.22° C | 48% | 1015.7 hPa | 0 mm | - | - | - |
| 1777748405 | 20.56° C | 49% | 1015.8 hPa | 0 mm | - | - | - |
| 1777748104 | 21.11° C | 49% | 1015.9 hPa | 0 mm | - | - | - |
| 1777745704 | 20° C | 54% | 1015.9 hPa | 0 mm | - | - | - |
| 1777745105 | 21.11° C | 54% | 1016 hPa | 0 mm | - | - | - |
| 1777743904 | 19.44° C | 54% | 1016.2 hPa | 0 mm | - | - | - |
| 1777742404 | 18.89° C | 55% | 1016.6 hPa | 0 mm | - | - | - |
| 1777740605 | 17.78° C | 53% | 1016.6 hPa | 0 mm | - | - | - |
| 1777737605 | 15.56° C | 33% | 1016.7 hPa | 0 mm | - | - | - |
| 1777735505 | 14.44° C | 16% | 1016.6 hPa | 0 mm | - | - | - |
| 1777733404 | 12.78° C | 1% | 1016.6 hPa | 0 mm | - | - | - |
| 1777732504 | 12.22° C | 7% | 1016.4 hPa | 0 mm | - | - | - |
| 1777732204 | 12.22° C | 11% | 1016.3 hPa | 0 mm | - | - | - |
| 1777730104 | 11.67° C | 7% | 1016.1 hPa | 0 mm | - | - | - |
| 1777729804 | 11.67° C | 6% | 1016.1 hPa | 0 mm | - | - | - |
| 1777729204 | 11.11° C | 9% | 1015.9 hPa | 0 mm | - | - | - |
| 1777724704 | 11.67° C | 27% | 1015.2 hPa | 0 mm | - | - | - |
| 1777724404 | 11.67° C | 26% | 1015.2 hPa | 0 mm | - | - | - |
| 1777722004 | 11.67° C | 31% | 1015.3 hPa | 0 mm | - | - | - |
| 1777721104 | 11.67° C | 33% | 1015.2 hPa | 0 mm | - | - | - |
* Rain latest hour (hover to see other rain measurements)
** Current wind speed in m/s (hover to see current wind gust speed)